createdAt,value
2023-08-23T00:02:13.163Z,11.68
2023-08-23T00:04:40.557Z,14.93
2023-08-23T00:07:07.925Z,13.77
2023-08-23T00:09:35.229Z,13.20
2023-08-23T00:12:02.508Z,13.60
2023-08-23T00:14:29.824Z,15.00
2023-08-23T00:16:57.176Z,14.45
2023-08-23T00:19:24.602Z,14.82
2023-08-23T00:21:51.892Z,14.88
2023-08-23T00:24:20.592Z,15.43
2023-08-23T00:26:47.917Z,14.63
2023-08-23T00:29:15.643Z,14.30
2023-08-23T00:31:43.006Z,16.00
2023-08-23T00:34:10.325Z,16.90
2023-08-23T00:36:37.873Z,14.02
2023-08-23T00:39:05.316Z,14.02
2023-08-23T00:41:32.869Z,15.40
2023-08-23T00:44:00.269Z,11.93
2023-08-23T00:46:27.848Z,11.38
2023-08-23T00:48:56.150Z,12.70
2023-08-23T00:51:23.533Z,13.98
2023-08-23T00:53:52.680Z,13.13
2023-08-23T00:56:20.466Z,10.93
2023-08-23T00:58:47.810Z,12.45
2023-08-23T01:01:15.297Z,13.63
2023-08-23T01:03:42.719Z,11.30
2023-08-23T01:06:23.889Z,11.52
2023-08-23T01:08:57.424Z,13.70
2023-08-23T01:11:27.430Z,13.10
2023-08-23T01:13:59.642Z,14.02
2023-08-23T01:16:27.476Z,14.98
2023-08-23T01:18:56.945Z,16.00
2023-08-23T01:21:29.256Z,13.57
2023-08-23T01:23:56.833Z,18.77
2023-08-23T01:26:25.301Z,20.08
2023-08-23T01:28:52.732Z,18.80
2023-08-23T01:31:23.274Z,16.80
2023-08-23T01:33:54.923Z,20.40
2023-08-23T01:36:26.944Z,18.33
2023-08-23T01:38:54.562Z,20.23
2023-08-23T01:41:22.209Z,19.95
2023-08-23T01:43:53.043Z,20.90
2023-08-23T01:49:14.061Z,24.23
2023-08-23T01:51:41.414Z,24.00
2023-08-23T01:54:08.985Z,25.50
2023-08-23T01:56:36.442Z,22.45
2023-08-23T01:59:04.044Z,23.98
2023-08-23T02:01:33.038Z,23.38
2023-08-23T02:04:00.572Z,25.60
2023-08-23T02:06:27.927Z,23.75
2023-08-23T02:08:55.277Z,33.75
2023-08-23T02:11:22.567Z,23.65
2023-08-23T02:13:50.647Z,28.38
2023-08-23T02:16:18.093Z,21.30
2023-08-23T02:18:45.387Z,27.63
2023-08-23T02:21:13.507Z,24.50
2023-08-23T02:23:42.771Z,22.65
2023-08-23T02:26:12.125Z,25.80
2023-08-23T02:28:39.421Z,24.42
2023-08-23T02:31:07.781Z,22.95
2023-08-23T02:33:35.107Z,27.50
2023-08-23T02:36:02.440Z,25.83
2023-08-23T02:38:29.789Z,26.95
2023-08-23T02:40:57.346Z,27.13
2023-08-23T02:45:53.313Z,25.58
2023-08-23T02:48:20.739Z,25.33
2023-08-23T02:50:48.028Z,22.58
2023-08-23T02:53:15.369Z,22.52
2023-08-23T02:55:42.720Z,27.42
2023-08-23T02:58:10.018Z,23.75
2023-08-23T03:00:37.405Z,22.83
2023-08-23T03:03:04.841Z,22.30
2023-08-23T03:05:32.645Z,24.17
2023-08-23T03:08:00.080Z,25.58
2023-08-23T03:10:27.400Z,27.38
2023-08-23T03:12:55.097Z,25.17
2023-08-23T03:15:22.599Z,31.08
2023-08-23T03:17:50.106Z,25.30
2023-08-23T03:20:17.947Z,27.63
2023-08-23T03:22:45.662Z,25.20
2023-08-23T03:25:13.893Z,27.02
2023-08-23T03:27:41.588Z,27.45
2023-08-23T03:30:09.350Z,27.55
2023-08-23T03:32:37.144Z,24.73
2023-08-23T03:35:04.700Z,28.23
2023-08-23T03:37:31.995Z,34.80
2023-08-23T03:39:59.287Z,27.00
2023-08-23T03:42:27.450Z,30.77
2023-08-23T03:44:55.240Z,29.52
2023-08-23T03:47:22.580Z,28.05
2023-08-23T03:49:50.237Z,31.20
2023-08-23T03:52:17.801Z,28.02
2023-08-23T03:54:45.165Z,29.55
2023-08-23T03:57:12.527Z,33.15
2023-08-23T03:59:39.775Z,30.40
2023-08-23T04:02:07.258Z,27.83
2023-08-23T04:04:34.827Z,29.35
2023-08-23T04:07:02.390Z,32.95
2023-08-23T04:09:29.665Z,31.50
2023-08-23T04:11:57.043Z,30.13
2023-08-23T04:14:24.325Z,34.03
2023-08-23T04:16:51.671Z,35.33
2023-08-23T04:19:18.981Z,42.75
2023-08-23T04:21:48.006Z,36.58
2023-08-23T04:26:43.641Z,37.78
2023-08-23T04:29:14.127Z,36.47
2023-08-23T04:31:44.740Z,36.10
2023-08-23T04:34:23.474Z,43.05
2023-08-23T04:36:54.022Z,37.78
2023-08-23T04:39:21.696Z,38.03
2023-08-23T04:41:49.092Z,43.42
2023-08-23T04:44:16.370Z,40.90
2023-08-23T04:46:46.558Z,45.95
2023-08-23T04:49:24.343Z,42.97
2023-08-23T04:51:51.693Z,43.90
2023-08-23T04:54:19.157Z,41.50
2023-08-23T04:56:46.499Z,43.17
2023-08-23T04:59:14.938Z,44.80
2023-08-23T05:01:42.349Z,46.78
2023-08-23T05:04:09.737Z,44.60
2023-08-23T05:06:38.685Z,48.17
2023-08-23T05:09:16.831Z,45.83
2023-08-23T05:11:45.869Z,47.55
2023-08-23T05:14:15.081Z,45.42
2023-08-23T05:16:44.777Z,43.78
2023-08-23T05:19:18.185Z,47.53
2023-08-23T05:21:49.292Z,45.28
2023-08-23T05:24:16.923Z,53.13
2023-08-23T05:26:44.252Z,51.10
2023-08-23T05:29:19.123Z,48.38
2023-08-23T05:31:48.383Z,48.90
2023-08-23T05:37:07.323Z,50.28
2023-08-23T05:39:40.325Z,51.55
2023-08-23T05:42:08.143Z,46.38
2023-08-23T05:44:35.554Z,50.28
2023-08-23T05:47:03.592Z,50.80
2023-08-23T05:49:31.054Z,51.87
2023-08-23T05:52:01.612Z,52.30
2023-08-23T05:54:29.818Z,53.72
2023-08-23T05:57:00.648Z,51.80
2023-08-23T05:59:28.472Z,44.47
2023-08-23T06:01:55.893Z,54.20
2023-08-23T06:04:23.295Z,53.40
2023-08-23T06:06:50.605Z,56.25
2023-08-23T06:09:19.383Z,50.22
2023-08-23T06:11:46.685Z,60.47
2023-08-23T06:14:31.981Z,53.20
2023-08-23T06:17:06.467Z,49.10
2023-08-23T06:20:19.726Z,53.22
2023-08-23T06:23:08.286Z,52.40
2023-08-23T06:28:34.814Z,50.15
2023-08-23T06:31:03.922Z,51.60
2023-08-23T06:36:53.067Z,53.28
2023-08-23T06:39:32.712Z,47.42
2023-08-23T06:42:12.950Z,55.08
2023-08-23T06:44:43.515Z,52.72
2023-08-23T06:47:13.631Z,51.65
2023-08-23T06:49:43.626Z,50.70
2023-08-23T06:52:15.224Z,44.97
2023-08-23T06:54:44.843Z,49.05
2023-08-23T06:57:14.352Z,48.63
2023-08-23T06:59:43.131Z,49.58
2023-08-23T07:02:18.541Z,50.08
2023-08-23T07:04:50.612Z,46.10
2023-08-23T07:07:19.942Z,56.33
2023-08-23T07:09:49.496Z,56.63
2023-08-23T07:12:17.004Z,58.22
2023-08-23T07:14:44.375Z,53.28
2023-08-23T07:17:11.785Z,57.78
2023-08-23T07:19:39.140Z,53.53
2023-08-23T07:22:06.630Z,56.97
2023-08-23T07:24:35.690Z,49.25
2023-08-23T07:27:05.987Z,57.40
2023-08-23T07:29:38.826Z,56.80
2023-08-23T07:32:09.538Z,55.33
2023-08-23T07:34:37.433Z,53.95
2023-08-23T07:37:04.723Z,54.10
2023-08-23T07:39:34.089Z,56.35
2023-08-23T07:44:47.454Z,61.75
2023-08-23T07:47:17.554Z,60.10
2023-08-23T07:49:49.929Z,53.70
2023-08-23T07:52:18.615Z,48.45
2023-08-23T07:54:45.885Z,51.72
2023-08-23T07:57:13.688Z,54.60
2023-08-23T07:59:41.068Z,53.08
2023-08-23T08:02:08.435Z,51.90
2023-08-23T08:04:35.737Z,55.47
2023-08-23T08:07:03.046Z,60.65
2023-08-23T08:09:31.018Z,61.72
2023-08-23T08:11:58.322Z,54.83
2023-08-23T08:14:25.638Z,53.85
2023-08-23T08:16:53.452Z,54.22
2023-08-23T08:19:33.895Z,49.67
2023-08-23T08:22:02.632Z,57.80
2023-08-23T08:24:39.406Z,60.67
2023-08-23T08:27:19.305Z,62.45
2023-08-23T08:29:48.393Z,60.75
2023-08-23T08:32:25.832Z,59.75
2023-08-23T08:35:19.072Z,64.90
2023-08-23T08:38:12.634Z,74.28
2023-08-23T08:40:40.612Z,69.03
2023-08-23T08:43:10.951Z,66.15
2023-08-23T08:45:41.684Z,62.20
2023-08-23T08:51:28.170Z,55.90
2023-08-23T08:53:56.444Z,62.17
2023-08-23T08:56:27.061Z,63.35
2023-08-23T08:59:03.819Z,62.05
2023-08-23T09:01:36.916Z,61.47
2023-08-23T09:04:10.791Z,58.25
2023-08-23T09:06:42.770Z,53.80
2023-08-23T09:12:08.989Z,60.38
2023-08-23T09:14:46.888Z,61.50
2023-08-23T09:17:25.097Z,65.90
2023-08-23T09:19:57.424Z,62.70
2023-08-23T09:22:30.746Z,57.85
2023-08-23T09:25:01.088Z,50.28
2023-08-23T09:30:38.759Z,51.58
2023-08-23T09:33:13.424Z,47.25
2023-08-23T09:35:48.625Z,50.33
2023-08-23T09:38:23.220Z,51.95
2023-08-23T09:40:50.895Z,53.33
2023-08-23T09:43:18.359Z,55.55
2023-08-23T09:45:47.289Z,54.30
2023-08-23T09:48:19.942Z,50.55
2023-08-23T09:50:48.622Z,46.05
2023-08-23T09:53:27.932Z,48.40
2023-08-23T09:55:55.605Z,43.85
2023-08-23T09:58:23.087Z,43.00
2023-08-23T10:00:52.249Z,43.90
2023-08-23T10:03:22.788Z,42.80
2023-08-23T10:05:54.110Z,47.47
2023-08-23T10:08:21.679Z,46.17
2023-08-23T10:10:51.398Z,42.20
2023-08-23T10:13:19.323Z,39.97
2023-08-23T10:15:46.664Z,46.80
2023-08-23T10:18:14.984Z,39.88
2023-08-23T10:20:42.673Z,39.15
2023-08-23T10:23:14.265Z,36.08
2023-08-23T10:25:43.315Z,36.42
2023-08-23T10:28:11.846Z,35.00
2023-08-23T10:33:10.223Z,31.27
2023-08-23T10:35:37.991Z,35.80
2023-08-23T10:38:09.265Z,31.47
2023-08-23T10:40:40.074Z,33.38
2023-08-23T10:43:13.389Z,28.17
2023-08-23T10:45:51.546Z,24.77
2023-08-23T10:48:22.933Z,24.42
2023-08-23T10:50:50.888Z,18.70
2023-08-23T10:53:18.468Z,22.98
2023-08-23T10:55:46.461Z,18.70
2023-08-23T10:58:17.233Z,18.30
2023-08-23T11:00:46.031Z,18.88
2023-08-23T11:03:14.224Z,18.42
2023-08-23T11:05:41.587Z,19.55
2023-08-23T11:08:09.767Z,18.50
2023-08-23T11:10:38.663Z,22.00
2023-08-23T11:13:06.553Z,19.77
2023-08-23T11:15:34.849Z,20.90
2023-08-23T11:18:02.774Z,20.63
2023-08-23T11:20:30.190Z,19.38
2023-08-23T11:22:57.487Z,19.40
2023-08-23T11:25:25.501Z,18.65
2023-08-23T11:27:53.606Z,15.13
2023-08-23T11:30:23.940Z,16.92
2023-08-23T11:32:51.281Z,12.13
2023-08-23T11:35:20.934Z,15.52
2023-08-23T11:37:51.053Z,11.27
2023-08-23T11:42:47.141Z,6.93
2023-08-23T11:45:14.438Z,8.30
2023-08-23T11:47:42.558Z,7.78
2023-08-23T11:50:10.046Z,6.70
2023-08-23T11:52:37.351Z,4.53
2023-08-23T11:55:05.141Z,4.18
2023-08-23T11:57:33.736Z,4.25
2023-08-23T12:00:01.073Z,3.85
2023-08-23T12:02:28.422Z,3.65
2023-08-23T12:04:56.014Z,4.45
2023-08-23T12:07:23.454Z,2.83
2023-08-23T12:10:21.041Z,4.18
2023-08-23T12:12:48.315Z,3.28
2023-08-23T12:15:15.657Z,6.00
2023-08-23T12:17:50.384Z,3.05
2023-08-23T12:20:17.957Z,5.43
2023-08-23T12:22:51.416Z,3.50
2023-08-23T12:25:23.803Z,5.05
2023-08-23T12:27:53.458Z,3.55
2023-08-23T12:30:29.435Z,7.30
2023-08-23T12:32:59.657Z,3.08
2023-08-23T12:35:29.404Z,3.22
2023-08-23T12:37:59.332Z,5.20
2023-08-23T12:40:29.478Z,6.38
2023-08-23T12:43:00.570Z,3.53
2023-08-23T12:45:32.637Z,4.80
2023-08-23T12:48:07.921Z,3.53
2023-08-23T12:50:37.215Z,3.92
2023-08-23T12:53:19.882Z,3.08
2023-08-23T12:55:53.236Z,4.55
2023-08-23T12:58:39.926Z,2.75
2023-08-23T13:01:08.292Z,4.75
2023-08-23T13:03:35.769Z,3.80
2023-08-23T13:06:06.910Z,3.63
2023-08-23T13:08:55.156Z,6.82
2023-08-23T13:11:33.331Z,4.55
2023-08-23T13:14:02.853Z,3.95
2023-08-23T13:16:31.305Z,2.55
2023-08-23T13:19:34.144Z,5.57
2023-08-23T13:22:07.688Z,3.70
2023-08-23T13:24:43.431Z,6.85
2023-08-23T13:27:23.982Z,2.75
2023-08-23T13:35:14.250Z,4.47
2023-08-23T13:38:13.981Z,3.50
2023-08-23T13:41:50.906Z,7.07
2023-08-23T13:44:22.867Z,4.63
2023-08-23T13:47:01.714Z,2.45
2023-08-23T13:49:30.496Z,5.55
2023-08-23T13:54:31.228Z,3.08
2023-08-23T13:57:05.689Z,5.13
2023-08-23T13:59:34.693Z,3.95
2023-08-23T14:02:05.927Z,3.28
2023-08-23T14:04:38.389Z,10.93
2023-08-23T14:07:06.651Z,4.82
2023-08-23T14:09:34.031Z,2.38
2023-08-23T14:12:11.700Z,3.27
2023-08-23T14:17:07.454Z,4.67
2023-08-23T14:19:45.625Z,3.30
2023-08-23T14:24:40.721Z,5.27
2023-08-23T14:27:12.726Z,2.67
2023-08-23T14:29:41.029Z,4.07
2023-08-23T14:32:09.921Z,4.60
2023-08-23T14:34:39.497Z,5.07
2023-08-23T14:37:09.135Z,4.30
2023-08-23T14:39:39.080Z,4.72
2023-08-23T14:42:08.881Z,4.78
2023-08-23T14:44:45.196Z,5.07
2023-08-23T14:47:13.575Z,3.83
2023-08-23T14:49:42.810Z,3.13
2023-08-23T14:52:22.149Z,4.07
2023-08-23T14:54:49.874Z,4.75
2023-08-23T14:57:17.381Z,3.75
2023-08-23T14:59:48.014Z,3.43
2023-08-23T15:02:16.017Z,3.72
2023-08-23T15:04:46.453Z,5.25
2023-08-23T15:07:29.508Z,3.55
2023-08-23T15:09:58.896Z,4.40
2023-08-23T15:12:28.357Z,5.10
2023-08-23T15:14:57.885Z,3.28
2023-08-23T15:17:33.844Z,3.03
2023-08-23T15:20:05.882Z,3.55
2023-08-23T15:22:45.056Z,4.63
2023-08-23T15:25:17.053Z,6.13
2023-08-23T15:27:51.486Z,6.63
2023-08-23T15:30:21.669Z,4.28
2023-08-23T15:32:56.931Z,4.03
2023-08-23T15:35:37.123Z,3.47
2023-08-23T15:38:46.251Z,5.20
2023-08-23T15:42:23.018Z,3.42
2023-08-23T15:44:58.524Z,4.10
2023-08-23T15:50:52.187Z,3.35
2023-08-23T15:53:20.451Z,4.75
2023-08-23T15:55:56.885Z,3.58
2023-08-23T15:58:29.253Z,4.03
2023-08-23T16:00:59.605Z,5.40
2023-08-23T16:03:30.332Z,4.20
2023-08-23T16:05:58.785Z,5.05
2023-08-23T16:08:28.739Z,3.72
2023-08-23T16:11:00.140Z,3.85
2023-08-23T16:13:29.814Z,3.80
2023-08-23T16:15:57.535Z,2.45
2023-08-23T16:18:24.862Z,3.20
2023-08-23T16:20:52.272Z,2.70
2023-08-23T16:23:19.629Z,4.78
2023-08-23T16:25:46.981Z,3.30
2023-08-23T16:28:14.317Z,3.33
2023-08-23T16:30:41.728Z,4.35
2023-08-23T16:33:09.212Z,5.53
2023-08-23T16:35:40.097Z,3.72
2023-08-23T16:38:12.272Z,2.20
2023-08-23T16:40:40.014Z,2.80
2023-08-23T16:43:09.890Z,2.87
2023-08-23T16:45:37.474Z,4.90
2023-08-23T16:48:05.184Z,4.67
2023-08-23T16:50:32.542Z,2.63
2023-08-23T16:52:59.900Z,2.63
2023-08-23T16:55:29.617Z,3.28
2023-08-23T16:57:59.308Z,3.72
2023-08-23T17:00:28.714Z,4.75
2023-08-23T17:02:56.624Z,2.97
2023-08-23T17:05:24.347Z,4.45
2023-08-23T17:07:51.917Z,4.10
2023-08-23T17:10:20.714Z,10.32
2023-08-23T17:15:15.679Z,3.95
2023-08-23T17:17:43.177Z,3.70
2023-08-23T17:20:10.829Z,2.10
2023-08-23T17:22:38.198Z,3.22
2023-08-23T17:25:05.716Z,3.00
2023-08-23T17:27:33.116Z,2.78
2023-08-23T17:30:00.449Z,3.75
2023-08-23T17:32:28.234Z,4.05
2023-08-23T17:34:55.834Z,2.73
2023-08-23T17:37:23.146Z,3.67
2023-08-23T17:39:50.502Z,3.45
2023-08-23T17:42:17.840Z,3.15
2023-08-23T17:44:45.233Z,5.10
2023-08-23T17:47:12.540Z,3.88
2023-08-23T17:49:40.057Z,5.13
2023-08-23T17:52:07.512Z,4.15
2023-08-23T17:54:35.312Z,4.18
2023-08-23T17:57:02.670Z,3.25
2023-08-23T17:59:31.155Z,62.85
2023-08-23T18:01:58.609Z,4.25
2023-08-23T18:04:27.538Z,4.88
2023-08-23T18:06:55.107Z,5.68
2023-08-23T18:09:27.215Z,4.93
2023-08-23T18:11:57.550Z,4.00
2023-08-23T18:14:30.224Z,3.80
2023-08-23T18:17:03.156Z,3.33
2023-08-23T18:19:44.904Z,5.10
2023-08-23T18:22:34.421Z,6.05
2023-08-23T18:25:05.210Z,4.43
2023-08-23T18:27:43.215Z,4.78
2023-08-23T18:30:13.361Z,3.85
2023-08-23T18:32:43.988Z,4.72
2023-08-23T18:35:17.045Z,5.40
2023-08-23T18:37:47.083Z,3.80
2023-08-23T18:40:16.853Z,4.82
2023-08-23T18:42:49.761Z,3.35
2023-08-23T18:45:21.881Z,2.83
2023-08-23T18:47:53.882Z,4.68
2023-08-23T18:50:42.114Z,3.47
2023-08-23T18:53:13.653Z,3.25
2023-08-23T18:55:47.791Z,4.75
2023-08-23T18:58:29.116Z,6.07
2023-08-23T19:00:59.529Z,3.85
2023-08-23T19:03:28.778Z,5.10
2023-08-23T19:05:56.271Z,6.35
2023-08-23T19:08:23.803Z,6.05
2023-08-23T19:10:51.209Z,8.55
2023-08-23T19:13:19.031Z,7.28
2023-08-23T19:15:47.068Z,7.20
2023-08-23T19:18:22.182Z,6.90
2023-08-23T19:20:51.904Z,5.13
2023-08-23T19:23:19.408Z,5.90
2023-08-23T19:25:51.605Z,6.18
2023-08-23T19:28:20.451Z,9.73
2023-08-23T19:30:51.929Z,5.90
2023-08-23T19:33:19.518Z,6.97
2023-08-23T19:35:49.605Z,4.63
2023-08-23T19:38:17.139Z,3.42
2023-08-23T19:40:44.627Z,5.18
2023-08-23T19:43:12.052Z,5.18
2023-08-23T19:45:39.528Z,4.03
2023-08-23T19:48:25.449Z,3.42
2023-08-23T19:50:54.636Z,7.10
2023-08-23T19:53:21.961Z,4.55
2023-08-23T19:55:49.495Z,6.35
2023-08-23T19:58:20.226Z,3.75
2023-08-23T20:00:47.564Z,6.30
2023-08-23T20:03:15.007Z,3.53
2023-08-23T20:05:46.024Z,6.65
2023-08-23T20:08:13.415Z,9.13
2023-08-23T20:10:40.904Z,11.80
2023-08-23T20:13:08.266Z,7.53
2023-08-23T20:15:35.850Z,6.05
2023-08-23T20:18:03.535Z,7.80
2023-08-23T20:20:30.956Z,11.68
2023-08-23T20:22:58.410Z,59.45
2023-08-23T20:25:26.905Z,21.00
2023-08-23T20:27:54.282Z,13.85
2023-08-23T20:30:21.651Z,13.38
2023-08-23T20:32:49.651Z,13.40
2023-08-23T20:35:17.026Z,8.68
2023-08-23T20:37:44.689Z,9.75
2023-08-23T20:40:15.055Z,6.32
2023-08-23T20:42:42.595Z,8.93
2023-08-23T20:45:10.306Z,7.25
2023-08-23T20:47:38.035Z,4.35
2023-08-23T20:50:06.502Z,6.65
2023-08-23T20:52:34.246Z,6.38
2023-08-23T20:55:01.703Z,7.22
2023-08-23T20:57:30.508Z,7.47
2023-08-23T20:59:57.983Z,6.60
2023-08-23T21:02:25.572Z,6.18
2023-08-23T21:04:52.927Z,5.03
2023-08-23T21:07:20.306Z,6.25
2023-08-23T21:09:47.781Z,6.15
2023-08-23T21:12:15.306Z,6.40
2023-08-23T21:14:43.219Z,5.45
2023-08-23T21:17:10.845Z,6.30
2023-08-23T21:19:38.223Z,6.88
2023-08-23T21:22:05.713Z,5.85
2023-08-23T21:24:34.477Z,6.35
2023-08-23T21:27:04.881Z,4.05
2023-08-23T21:29:32.391Z,4.15
2023-08-23T21:31:59.868Z,7.32
2023-08-23T21:34:27.571Z,5.90
2023-08-23T21:36:55.243Z,7.43
2023-08-23T21:39:22.621Z,6.05
2023-08-23T21:41:49.964Z,6.88
2023-08-23T21:44:17.394Z,7.88
2023-08-23T21:46:45.827Z,7.80
2023-08-23T21:49:13.291Z,6.55
2023-08-23T21:51:40.685Z,9.63
2023-08-23T21:54:09.412Z,6.50
2023-08-23T21:56:36.852Z,9.75
2023-08-23T21:59:05.487Z,7.72
2023-08-23T22:01:33.003Z,9.07
2023-08-23T22:04:00.908Z,6.50
2023-08-23T22:06:30.544Z,8.07
2023-08-23T22:08:58.151Z,7.68
2023-08-23T22:11:25.573Z,7.95
2023-08-23T22:13:53.018Z,8.10
2023-08-23T22:16:21.262Z,6.80
2023-08-23T22:18:50.159Z,9.50
2023-08-23T22:21:17.539Z,8.45
2023-08-23T22:23:44.900Z,7.22
2023-08-23T22:26:12.384Z,8.38
2023-08-23T22:28:40.449Z,8.40
2023-08-23T22:31:09.334Z,9.03
2023-08-23T22:36:04.576Z,7.05
2023-08-23T22:38:32.073Z,6.57
2023-08-23T22:40:59.536Z,7.38
2023-08-23T22:43:27.102Z,7.68
2023-08-23T22:45:55.259Z,9.75
2023-08-23T22:48:23.443Z,9.80
2023-08-23T22:50:51.772Z,9.13
2023-08-23T22:53:19.703Z,8.60
2023-08-23T22:55:47.289Z,6.15
2023-08-23T22:58:14.714Z,8.25
2023-08-23T23:00:43.436Z,8.38
2023-08-23T23:03:10.978Z,12.18
2023-08-23T23:05:40.341Z,11.07
2023-08-23T23:08:07.945Z,7.53
2023-08-23T23:10:35.361Z,10.25
2023-08-23T23:13:03.959Z,9.02
2023-08-23T23:15:31.293Z,8.68
2023-08-23T23:17:58.710Z,8.02
2023-08-23T23:20:26.136Z,9.85
2023-08-23T23:22:53.498Z,9.88
2023-08-23T23:25:20.961Z,10.20
2023-08-23T23:27:48.695Z,8.02
2023-08-23T23:30:16.893Z,9.03
2023-08-23T23:32:44.339Z,9.50
2023-08-23T23:35:11.837Z,8.65
2023-08-23T23:37:39.281Z,12.02
2023-08-23T23:40:10.606Z,10.50
2023-08-23T23:42:38.096Z,8.50
2023-08-23T23:45:06.099Z,7.78
2023-08-23T23:47:33.487Z,14.00
2023-08-23T23:50:01.022Z,11.57
2023-08-23T23:52:28.451Z,10.00
2023-08-23T23:54:55.806Z,7.82
2023-08-23T23:57:23.347Z,7.40
2023-08-23T23:59:50.988Z,8.95
